West Warwick, RI

3:43 PM EST on February 20, 2017 (GMT -0500)
John F. Horgan Elementary School | | Change Station

Elev 0 ft 41.71 °N, 71.52 °W | Updated 4 seconds ago

Clear
Clear
46.9 °F
Feels Like 45 °F
N
4.0
Wind Variable Wind from NE
Gusts 4.9 mph

Today
High -- | Low -- °F
--% Chance of Precip.
Yesterday
High -- | Low -- °F
Precip. -- in
Pressure 30.16 in
Visibility 10.0 miles
Clouds Few 5500 ft
Windchill 45 °F
Dew Point 19 °F
Humidity 32%
Rainfall 0.00 in
Snow Depth Not available.
6:34 AM 5:25 PM
Waning Crescent, 31% visible
METAR KPVD 201951Z 36008G19KT 10SM FEW055 08/M11 A3015 RMK AO2 SLP211 T00831106
Pressure 30.16 in
Visibility 10.0 miles
Clouds Few 5500 ft
Windchill 45 °F
Dew Point 19 °F
Humidity 32%
Rainfall 0.00 in
Snow Depth Not available.
6:34 AM 5:25 PM
Waning Crescent, 31% visible
METAR KPVD 201951Z 36008G19KT 10SM FEW055 08/M11 A3015 RMK AO2 SLP211 T00831106

Get Your Daily Forecast Email!

Thanks for signing up!

Be on the lookout for a verification email in your inbox.

You'll start receiving the daily forecast at 8 AM.

×

10-Day Weather Forecast

Almanac

Astronomy

Feb. 20, 2017 Rise Set
Actual Time
Civil Twilight
Nautical Twilight
Astronomical Twilight
Moon
Length of Visible Light
Length of Day
Tomorrow will be .
, % of the Moon is Illuminated

Today's Extremes

State Highs State Lows

Community

WunderPhotos

Upload Photos

1,962,540 photos uploaded!

WunderBlog® & News

Nearby

Air Quality

  Air Quality AQ Index Pollutant
Not available.

Snow Depth

Station Depth Elevation

Earthquake Activity

City Distance Mag. Time & Date
Minimum magnitude displayed is 2.5.

Coastal Water Temperatures

Place Temperature

Stations

Nearby Weather Stations

Station Location Temp. Windchill Dew Point Humidity Wind Precip. Elev Updated Type
                   

Watches & Warnings

There are currently no watches in effect.